createdAt,value
2023-04-28T00:01:42.074Z,92.90
2023-04-28T00:04:09.477Z,93.10
2023-04-28T00:06:37.185Z,93.40
2023-04-28T00:09:04.199Z,93.30
2023-04-28T00:11:31.179Z,93.60
2023-04-28T00:13:58.058Z,93.60
2023-04-28T00:16:25.006Z,93.70
2023-04-28T00:18:52.018Z,94.20
2023-04-28T00:21:18.985Z,94.10
2023-04-28T00:23:45.984Z,93.90
2023-04-28T00:26:12.998Z,94.00
2023-04-28T00:28:40.001Z,94.30
2023-04-28T00:31:16.017Z,94.50
2023-04-28T00:33:44.143Z,94.80
2023-04-28T00:36:11.612Z,95.00
2023-04-28T00:38:38.681Z,95.10
2023-04-28T00:41:05.754Z,95.40
2023-04-28T00:43:32.807Z,95.50
2023-04-28T00:45:59.871Z,95.60
2023-04-28T00:48:27.677Z,95.70
2023-04-28T00:50:54.711Z,96.00
2023-04-28T00:53:21.819Z,96.40
2023-04-28T00:55:50.838Z,96.30
2023-04-28T00:58:17.715Z,96.30
2023-04-28T01:00:44.750Z,96.20
2023-04-28T01:03:12.036Z,96.40
2023-04-28T01:05:39.241Z,96.50
2023-04-28T01:08:06.279Z,96.50
2023-04-28T01:10:33.176Z,96.70
2023-04-28T01:13:00.110Z,96.70
2023-04-28T01:15:27.903Z,96.80
2023-04-28T01:17:55.978Z,96.90
2023-04-28T01:20:22.949Z,96.80
2023-04-28T01:22:55.695Z,96.80
2023-04-28T01:25:22.545Z,96.90
2023-04-28T01:27:49.502Z,97.10
2023-04-28T01:30:16.552Z,97.10
2023-04-28T01:32:43.491Z,97.30
2023-04-28T01:35:10.396Z,98.60
2023-04-28T01:37:37.217Z,97.50
2023-04-28T01:40:04.706Z,97.70
2023-04-28T01:42:31.698Z,97.80
2023-04-28T01:44:58.601Z,97.80
2023-04-28T01:47:25.704Z,97.90
2023-04-28T01:49:52.586Z,98.20
2023-04-28T01:52:22.548Z,97.90
2023-04-28T01:54:49.524Z,98.00
2023-04-28T01:57:17.709Z,98.00
2023-04-28T01:59:44.810Z,98.00
2023-04-28T02:02:12.048Z,98.10
2023-04-28T02:04:39.613Z,98.20
2023-04-28T02:07:07.163Z,98.00
2023-04-28T02:09:34.196Z,97.90
2023-04-28T02:12:02.416Z,98.00
2023-04-28T02:14:32.220Z,98.30
2023-04-28T02:16:59.689Z,98.30
2023-04-28T02:19:26.781Z,98.30
2023-04-28T02:21:53.773Z,98.20
2023-04-28T02:24:20.670Z,98.30
2023-04-28T02:26:47.708Z,98.40
2023-04-28T02:29:14.960Z,98.30
2023-04-28T02:31:41.958Z,98.30
2023-04-28T02:34:08.866Z,98.40
2023-04-28T02:36:36.053Z,98.40
2023-04-28T02:39:02.936Z,98.50
2023-04-28T02:41:31.201Z,98.60
2023-04-28T02:43:58.085Z,98.80
2023-04-28T02:46:25.039Z,98.80
2023-04-28T02:48:51.962Z,98.70
2023-04-28T02:51:18.845Z,98.60
2023-04-28T02:53:45.762Z,98.70
2023-04-28T02:56:12.640Z,98.60
2023-04-28T02:58:39.517Z,98.80
2023-04-28T03:01:06.452Z,99.00
2023-04-28T03:03:33.785Z,99.10
2023-04-28T03:06:00.820Z,99.20
2023-04-28T03:08:27.729Z,99.30
2023-04-28T03:10:54.620Z,99.40
2023-04-28T03:13:21.636Z,99.40
2023-04-28T03:15:48.577Z,99.20
2023-04-28T03:18:15.784Z,99.00
2023-04-28T03:20:42.664Z,99.10
2023-04-28T03:23:09.602Z,99.20
2023-04-28T03:25:36.449Z,99.30
2023-04-28T03:28:03.495Z,99.50
2023-04-28T03:30:30.483Z,99.60
2023-04-28T03:32:57.453Z,99.90
2023-04-28T03:35:24.426Z,99.80
2023-04-28T03:37:51.317Z,99.90
2023-04-28T03:40:18.290Z,99.90
2023-04-28T03:42:45.180Z,99.80
2023-04-28T03:45:12.084Z,99.90
2023-04-28T03:47:39.049Z,99.90
2023-04-28T03:50:07.083Z,99.90
2023-04-28T03:52:33.948Z,99.90
2023-04-28T03:55:00.881Z,99.90
2023-04-28T03:57:27.805Z,99.90
2023-04-28T03:59:54.679Z,99.90
2023-04-28T04:02:21.943Z,99.90
2023-04-28T04:04:49.279Z,99.90
2023-04-28T04:07:16.824Z,99.90
2023-04-28T04:09:43.736Z,99.90
2023-04-28T04:12:10.639Z,99.90
2023-04-28T04:14:37.525Z,99.90
2023-04-28T04:17:04.425Z,99.90
2023-04-28T04:19:31.417Z,99.90
2023-04-28T04:21:58.310Z,99.90
2023-04-28T04:24:25.618Z,99.90
2023-04-28T04:26:52.522Z,99.90
2023-04-28T04:29:19.493Z,99.90
2023-04-28T04:31:46.470Z,99.90
2023-04-28T04:34:13.584Z,99.90
2023-04-28T04:36:40.516Z,99.90
2023-04-28T04:39:07.390Z,99.90
2023-04-28T04:41:34.314Z,99.90
2023-04-28T04:44:01.168Z,99.90
2023-04-28T04:46:28.263Z,99.90
2023-04-28T04:48:55.298Z,99.90
2023-04-28T04:51:22.576Z,99.90
2023-04-28T04:53:49.475Z,99.90
2023-04-28T04:56:16.388Z,99.90
2023-04-28T04:58:46.693Z,99.90
2023-04-28T05:01:13.601Z,99.90
2023-04-28T05:03:40.842Z,99.90
2023-04-28T05:06:07.874Z,99.90
2023-04-28T05:08:34.724Z,99.90
2023-04-28T05:11:01.638Z,99.90
2023-04-28T05:13:28.525Z,99.90
2023-04-28T05:15:55.522Z,99.50
2023-04-28T05:18:22.599Z,99.60
2023-04-28T05:20:49.549Z,99.40
2023-04-28T05:23:16.786Z,99.20
2023-04-28T05:25:44.156Z,98.90
2023-04-28T05:28:11.191Z,98.90
2023-04-28T05:30:38.390Z,99.00
2023-04-28T05:33:05.395Z,98.80
2023-04-28T05:35:32.421Z,98.80
2023-04-28T05:37:59.576Z,98.80
2023-04-28T05:40:26.929Z,98.80
2023-04-28T05:42:53.874Z,98.60
2023-04-28T05:45:20.745Z,98.70
2023-04-28T05:47:47.662Z,98.70
2023-04-28T05:50:14.580Z,98.70
2023-04-28T05:52:41.461Z,98.70
2023-04-28T05:55:08.921Z,98.90
2023-04-28T05:57:45.653Z,98.80
2023-04-28T06:00:19.333Z,98.80
2023-04-28T06:02:46.386Z,98.70
2023-04-28T06:05:13.622Z,98.70
2023-04-28T06:07:40.663Z,98.80
2023-04-28T06:10:08.423Z,99.70
2023-04-28T06:12:35.334Z,98.10
2023-04-28T06:15:02.247Z,98.30
2023-04-28T06:17:31.303Z,98.60
2023-04-28T06:19:59.155Z,97.30
2023-04-28T06:22:26.424Z,96.80
2023-04-28T06:24:53.900Z,96.70
2023-04-28T06:27:20.939Z,96.80
2023-04-28T06:29:47.816Z,96.70
2023-04-28T06:32:14.833Z,96.50
2023-04-28T06:34:42.575Z,96.20
2023-04-28T06:37:09.456Z,97.20
2023-04-28T06:39:36.370Z,96.20
2023-04-28T06:42:03.305Z,95.90
2023-04-28T06:44:30.198Z,95.90
2023-04-28T06:46:57.122Z,96.00
2023-04-28T06:49:24.086Z,96.90
2023-04-28T06:51:50.962Z,95.70
2023-04-28T06:54:18.862Z,96.00
2023-04-28T06:56:46.090Z,95.50
2023-04-28T06:59:13.209Z,95.30
2023-04-28T07:01:40.208Z,95.30
2023-04-28T07:04:07.431Z,96.00
2023-04-28T07:06:34.430Z,95.20
2023-04-28T07:09:01.387Z,95.20
2023-04-28T07:11:28.336Z,95.00
2023-04-28T07:13:55.336Z,94.70
2023-04-28T07:16:22.402Z,94.50
2023-04-28T07:18:49.392Z,96.20
2023-04-28T07:21:16.272Z,95.10
2023-04-28T07:23:43.268Z,95.20
2023-04-28T07:26:10.160Z,94.50
2023-04-28T07:28:37.273Z,94.50
2023-04-28T07:31:04.214Z,93.90
2023-04-28T07:33:31.459Z,93.30
2023-04-28T07:35:58.388Z,93.90
2023-04-28T07:38:25.366Z,93.40
2023-04-28T07:43:19.388Z,93.00
2023-04-28T07:45:48.989Z,93.10
2023-04-28T07:48:16.337Z,92.10
2023-04-28T07:50:43.304Z,92.70
2023-04-28T07:53:10.226Z,92.00
2023-04-28T07:55:37.395Z,92.20
2023-04-28T07:58:04.586Z,91.50
2023-04-28T08:00:31.509Z,91.30
2023-04-28T08:02:58.689Z,90.90
2023-04-28T08:05:25.936Z,90.70
2023-04-28T08:07:53.174Z,90.20
2023-04-28T08:10:20.438Z,89.80
2023-04-28T08:12:47.635Z,89.00
2023-04-28T08:15:15.582Z,86.30
2023-04-28T08:17:43.509Z,85.50
2023-04-28T08:20:11.186Z,85.00
2023-04-28T08:22:38.536Z,82.50
2023-04-28T08:25:06.021Z,82.50
2023-04-28T08:27:34.161Z,79.90
2023-04-28T08:30:01.200Z,79.90
2023-04-28T08:32:28.424Z,79.50
2023-04-28T08:34:55.499Z,81.50
2023-04-28T08:37:22.498Z,78.40
2023-04-28T08:39:49.514Z,77.40
2023-04-28T08:42:19.056Z,75.60
2023-04-28T08:44:47.500Z,75.10
2023-04-28T08:47:15.055Z,71.20
2023-04-28T08:49:43.757Z,74.20
2023-04-28T08:52:13.532Z,72.70
2023-04-28T08:54:41.676Z,72.50
2023-04-28T08:57:11.883Z,70.40
2023-04-28T08:59:41.175Z,62.90
2023-04-28T09:02:09.675Z,63.20
2023-04-28T09:04:37.083Z,65.50
2023-04-28T09:07:04.276Z,64.00
2023-04-28T09:09:34.744Z,62.60
2023-04-28T09:12:05.067Z,62.20
2023-04-28T09:14:37.257Z,63.40
2023-04-28T09:17:14.401Z,63.90
2023-04-28T09:19:44.658Z,59.90
2023-04-28T09:22:25.508Z,61.10
2023-04-28T09:24:55.230Z,63.30
2023-04-28T09:27:28.584Z,64.00
2023-04-28T09:29:55.723Z,61.20
2023-04-28T09:32:24.267Z,59.20
2023-04-28T09:34:54.220Z,58.20
2023-04-28T09:37:32.210Z,56.80
2023-04-28T09:40:09.949Z,57.20
2023-04-28T09:42:45.124Z,57.60
2023-04-28T09:45:14.572Z,56.70
2023-04-28T09:47:46.233Z,57.40
2023-04-28T09:50:17.639Z,59.40
2023-04-28T09:52:49.517Z,57.40
2023-04-28T09:55:17.731Z,56.60
2023-04-28T09:57:49.407Z,56.20
2023-04-28T10:00:17.642Z,56.90
2023-04-28T10:02:45.561Z,55.20
2023-04-28T10:05:13.947Z,54.40
2023-04-28T10:07:41.547Z,53.50
2023-04-28T10:10:09.060Z,52.40
2023-04-28T10:12:38.625Z,52.40
2023-04-28T10:15:08.372Z,53.30
2023-04-28T10:17:36.698Z,55.30
2023-04-28T10:20:05.431Z,52.90
2023-04-28T10:23:29.223Z,51.30
2023-04-28T10:25:59.836Z,51.40
2023-04-28T10:28:27.719Z,50.70
2023-04-28T10:31:12.842Z,50.40
2023-04-28T10:33:41.442Z,49.80
2023-04-28T10:36:08.976Z,50.50
2023-04-28T10:38:36.984Z,48.40
2023-04-28T10:41:04.461Z,47.20
2023-04-28T10:43:39.703Z,47.70
2023-04-28T10:46:11.397Z,47.50
2023-04-28T10:48:47.717Z,46.10
2023-04-28T10:51:24.346Z,45.80
2023-04-28T10:53:52.344Z,44.70
2023-04-28T10:56:25.259Z,44.20
2023-04-28T10:58:59.937Z,44.40
2023-04-28T11:01:34.687Z,43.90
2023-04-28T11:04:17.909Z,43.70
2023-04-28T11:06:47.008Z,44.70
2023-04-28T11:09:19.570Z,41.90
2023-04-28T11:12:05.965Z,41.00
2023-04-28T11:14:35.971Z,41.30
2023-04-28T11:17:13.343Z,39.80
2023-04-28T11:19:46.152Z,40.60
2023-04-28T11:22:21.758Z,39.90
2023-04-28T11:24:59.695Z,39.70
2023-04-28T11:27:28.722Z,41.50
2023-04-28T11:29:56.148Z,41.10
2023-04-28T11:32:36.143Z,39.60
2023-04-28T11:35:09.701Z,40.90
2023-04-28T11:37:36.800Z,39.90
2023-04-28T11:40:14.197Z,38.90
2023-04-28T11:42:48.927Z,39.20
2023-04-28T11:45:15.855Z,38.70
2023-04-28T11:47:42.871Z,38.30
2023-04-28T11:50:09.954Z,37.80
2023-04-28T11:52:37.411Z,37.90
2023-04-28T11:55:04.927Z,37.40
2023-04-28T11:57:31.985Z,37.20
2023-04-28T12:00:22.101Z,35.60
2023-04-28T12:02:49.450Z,34.30
2023-04-28T12:05:16.741Z,33.40
2023-04-28T12:07:45.229Z,34.60
2023-04-28T12:10:13.820Z,33.70
2023-04-28T12:12:51.010Z,35.90
2023-04-28T12:15:20.809Z,35.40
2023-04-28T12:17:49.153Z,36.80
2023-04-28T12:20:37.188Z,33.90
2023-04-28T12:23:04.493Z,34.50
2023-04-28T12:25:31.575Z,35.70
2023-04-28T12:28:04.525Z,35.40
2023-04-28T12:30:34.445Z,35.30
2023-04-28T12:33:01.758Z,35.70
2023-04-28T12:35:29.852Z,36.00
2023-04-28T12:37:58.605Z,37.30
2023-04-28T12:40:26.029Z,37.20
2023-04-28T12:42:53.166Z,37.80
2023-04-28T12:45:20.073Z,38.60
2023-04-28T12:47:47.992Z,38.90
2023-04-28T12:50:15.045Z,39.40
2023-04-28T12:52:41.986Z,40.10
2023-04-28T12:55:09.530Z,40.80
2023-04-28T12:57:38.989Z,40.50
2023-04-28T13:00:08.312Z,40.10
2023-04-28T13:02:35.677Z,40.00
2023-04-28T13:05:03.090Z,40.20
2023-04-28T13:07:30.444Z,41.10
2023-04-28T13:09:58.321Z,42.10
2023-04-28T13:12:26.129Z,41.80
2023-04-28T13:14:53.267Z,41.70
2023-04-28T13:17:20.341Z,42.00
2023-04-28T13:19:47.761Z,41.80
2023-04-28T13:22:16.027Z,41.40
2023-04-28T13:24:43.282Z,41.60
2023-04-28T13:27:10.640Z,42.40
2023-04-28T13:29:37.883Z,42.80
2023-04-28T13:32:05.884Z,42.30
2023-04-28T13:34:33.589Z,41.80
2023-04-28T13:37:00.580Z,41.90
2023-04-28T13:39:27.597Z,42.00
2023-04-28T13:41:54.552Z,42.40
2023-04-28T13:44:21.490Z,42.40
2023-04-28T13:46:48.581Z,41.60
2023-04-28T13:49:15.707Z,41.90
2023-04-28T13:51:42.756Z,42.80
2023-04-28T13:54:11.399Z,42.90
2023-04-28T13:56:38.564Z,43.30
2023-04-28T13:59:05.466Z,43.50
2023-04-28T14:01:32.421Z,43.50
2023-04-28T14:03:59.483Z,43.90
2023-04-28T14:06:27.810Z,43.60
2023-04-28T14:08:54.774Z,43.00
2023-04-28T14:11:22.684Z,43.40
2023-04-28T14:13:49.605Z,43.20
2023-04-28T14:16:16.570Z,43.60
2023-04-28T14:18:43.632Z,44.30
2023-04-28T14:21:10.635Z,43.80
2023-04-28T14:23:37.861Z,44.60
2023-04-28T14:26:05.028Z,44.10
2023-04-28T14:28:31.960Z,46.10
2023-04-28T14:31:03.865Z,44.70
2023-04-28T14:33:30.750Z,45.70
2023-04-28T14:35:57.672Z,45.60
2023-04-28T14:38:24.549Z,45.90
2023-04-28T14:40:51.556Z,45.40
2023-04-28T14:43:18.466Z,44.80
2023-04-28T14:45:45.339Z,45.60
2023-04-28T14:48:14.251Z,45.20
2023-04-28T14:50:43.268Z,45.00
2023-04-28T14:53:10.115Z,45.30
2023-04-28T14:55:37.033Z,45.60
2023-04-28T14:58:05.898Z,46.10
2023-04-28T15:00:32.821Z,46.10
2023-04-28T15:02:59.846Z,45.40
2023-04-28T15:05:27.291Z,46.10
2023-04-28T15:07:54.131Z,45.80
2023-04-28T15:10:21.237Z,45.50
2023-04-28T15:12:49.032Z,45.80
2023-04-28T15:15:15.956Z,46.60
2023-04-28T15:17:43.654Z,46.80
2023-04-28T15:20:10.998Z,46.50
2023-04-28T15:22:38.117Z,46.20
2023-04-28T15:25:05.568Z,46.70
2023-04-28T15:27:32.671Z,46.80
2023-04-28T15:29:59.546Z,47.90
2023-04-28T15:32:28.467Z,47.40
2023-04-28T15:34:56.767Z,48.10
2023-04-28T15:37:43.441Z,47.70
2023-04-28T15:40:13.957Z,47.70
2023-04-28T15:42:48.921Z,47.90
2023-04-28T15:45:18.362Z,47.90
2023-04-28T15:47:49.426Z,48.30
2023-04-28T15:50:18.731Z,48.80
2023-04-28T15:52:46.455Z,48.60
2023-04-28T15:55:16.210Z,50.20
2023-04-28T15:57:43.551Z,49.50
2023-04-28T16:00:12.177Z,49.20
2023-04-28T16:02:39.571Z,49.00
2023-04-28T16:05:07.304Z,50.00
2023-04-28T16:07:44.306Z,49.10
2023-04-28T16:10:13.886Z,49.60
2023-04-28T16:12:42.382Z,50.30
2023-04-28T16:15:12.438Z,50.00
2023-04-28T16:17:40.645Z,50.20
2023-04-28T16:20:09.699Z,52.00
2023-04-28T16:22:38.795Z,50.50
2023-04-28T16:25:07.008Z,50.80
2023-04-28T16:27:35.592Z,50.80
2023-04-28T16:30:03.289Z,50.60
2023-04-28T16:32:30.657Z,50.80
2023-04-28T16:34:58.416Z,51.30
2023-04-28T16:37:26.107Z,52.00
2023-04-28T16:39:53.111Z,51.40
2023-04-28T16:42:22.781Z,51.80
2023-04-28T16:44:52.512Z,51.80
2023-04-28T16:47:20.900Z,52.10
2023-04-28T16:49:48.438Z,52.10
2023-04-28T16:52:16.595Z,50.70
2023-04-28T16:54:43.891Z,51.90
2023-04-28T16:57:11.011Z,52.20
2023-04-28T16:59:37.955Z,52.20
2023-04-28T17:02:05.005Z,52.60
2023-04-28T17:04:32.316Z,52.90
2023-04-28T17:06:59.918Z,52.70
2023-04-28T17:09:27.470Z,52.60
2023-04-28T17:11:54.909Z,53.00
2023-04-28T17:14:22.072Z,53.30
2023-04-28T17:16:49.078Z,53.10
2023-04-28T17:19:16.699Z,53.60
2023-04-28T17:21:43.729Z,53.60
2023-04-28T17:24:10.915Z,54.30
2023-04-28T17:26:37.836Z,54.00
2023-04-28T17:29:04.933Z,54.20
2023-04-28T17:31:32.031Z,54.30
2023-04-28T17:34:00.441Z,54.60
2023-04-28T17:36:28.506Z,54.70
2023-04-28T17:38:56.111Z,55.30
2023-04-28T17:41:23.154Z,54.90
2023-04-28T17:43:51.850Z,55.20
2023-04-28T17:46:19.029Z,54.80
2023-04-28T17:48:46.182Z,54.90
2023-04-28T17:51:13.125Z,54.90
2023-04-28T17:53:40.094Z,55.20
2023-04-28T17:56:08.162Z,55.90
2023-04-28T17:58:36.260Z,55.80
2023-04-28T18:01:05.025Z,56.30
2023-04-28T18:03:34.285Z,56.90
2023-04-28T18:06:01.480Z,57.10
2023-04-28T18:08:28.501Z,57.10
2023-04-28T18:10:56.385Z,57.50
2023-04-28T18:13:23.308Z,57.90
2023-04-28T18:15:50.398Z,58.70
2023-04-28T18:18:17.362Z,59.60
2023-04-28T18:20:44.576Z,59.70
2023-04-28T18:23:11.965Z,60.00
2023-04-28T18:25:39.187Z,61.00
2023-04-28T18:28:07.961Z,61.80
2023-04-28T18:30:38.035Z,63.60
2023-04-28T18:33:09.406Z,63.10
2023-04-28T18:35:37.223Z,63.00
2023-04-28T18:38:05.192Z,64.30
2023-04-28T18:40:34.155Z,65.00
2023-04-28T18:43:02.296Z,65.60
2023-04-28T18:45:35.441Z,66.40
2023-04-28T18:48:04.001Z,65.80
2023-04-28T18:50:32.412Z,66.30
2023-04-28T18:53:04.220Z,66.80
2023-04-28T18:55:33.532Z,67.40
2023-04-28T18:58:02.156Z,68.40
2023-04-28T19:00:30.035Z,68.60
2023-04-28T19:02:57.038Z,69.10
2023-04-28T19:05:24.235Z,70.40
2023-04-28T19:07:51.171Z,69.90
2023-04-28T19:10:18.197Z,70.60
2023-04-28T19:12:45.178Z,71.10
2023-04-28T19:15:12.536Z,71.80
2023-04-28T19:17:39.636Z,72.60
2023-04-28T19:20:07.733Z,75.80
2023-04-28T19:22:44.373Z,74.60
2023-04-28T19:25:12.293Z,75.40
2023-04-28T19:27:41.153Z,74.70
2023-04-28T19:30:11.272Z,75.90
2023-04-28T19:32:41.873Z,75.60
2023-04-28T19:35:09.514Z,76.30
2023-04-28T19:37:36.462Z,78.20
2023-04-28T19:40:07.524Z,80.60
2023-04-28T19:42:37.553Z,80.20
2023-04-28T19:45:05.206Z,81.40
2023-04-28T19:47:34.777Z,80.80
2023-04-28T19:50:02.057Z,81.40
2023-04-28T19:52:29.226Z,82.00
2023-04-28T19:54:57.184Z,81.90
2023-04-28T19:57:24.242Z,80.80
2023-04-28T19:59:51.552Z,81.10
2023-04-28T20:02:19.262Z,81.80
2023-04-28T20:04:46.904Z,82.00
2023-04-28T20:07:14.266Z,83.20
2023-04-28T20:09:41.252Z,84.70
2023-04-28T20:12:09.156Z,87.20
2023-04-28T20:14:37.192Z,88.60
2023-04-28T20:17:05.437Z,88.40
2023-04-28T20:19:32.439Z,86.30
2023-04-28T20:22:02.544Z,88.30
2023-04-28T20:24:29.513Z,91.60
2023-04-28T20:26:56.461Z,93.70
2023-04-28T20:29:23.605Z,96.10
2023-04-28T20:31:50.781Z,97.40
2023-04-28T20:34:18.080Z,98.80
2023-04-28T20:36:45.017Z,99.40
2023-04-28T20:39:12.314Z,99.90
2023-04-28T20:41:43.258Z,99.90
2023-04-28T20:44:10.207Z,99.90
2023-04-28T20:46:37.140Z,99.90
2023-04-28T20:49:04.517Z,99.90
2023-04-28T20:51:36.056Z,99.90
2023-04-28T20:54:04.319Z,99.90
2023-04-28T20:56:31.229Z,99.90
2023-04-28T20:58:58.166Z,99.90
2023-04-28T21:01:25.196Z,99.90
2023-04-28T21:03:52.375Z,99.90
2023-04-28T21:06:19.545Z,99.90
2023-04-28T21:08:46.445Z,99.90
2023-04-28T21:11:14.791Z,99.90
2023-04-28T21:13:43.082Z,99.90
2023-04-28T21:16:17.029Z,99.90
2023-04-28T21:18:47.181Z,99.90
2023-04-28T21:21:14.439Z,99.90
2023-04-28T21:23:42.760Z,99.90
2023-04-28T21:26:10.330Z,99.90
2023-04-28T21:28:37.791Z,99.90
2023-04-28T21:31:04.925Z,99.90
2023-04-28T21:33:32.995Z,99.90
2023-04-28T21:36:09.119Z,99.90
2023-04-28T21:38:37.248Z,99.90
2023-04-28T21:41:04.261Z,99.90
2023-04-28T21:43:31.146Z,99.90
2023-04-28T21:45:58.119Z,99.90
2023-04-28T21:48:24.992Z,99.90
2023-04-28T21:50:51.919Z,99.90
2023-04-28T21:53:18.787Z,99.90
2023-04-28T21:55:45.730Z,99.90
2023-04-28T21:58:12.648Z,99.90
2023-04-28T22:00:43.613Z,99.90
2023-04-28T22:03:11.286Z,99.90
2023-04-28T22:05:40.411Z,99.90
2023-04-28T22:08:07.596Z,99.90
2023-04-28T22:10:35.228Z,99.90
2023-04-28T22:13:02.466Z,99.90
2023-04-28T22:15:29.398Z,99.90
2023-04-28T22:17:56.477Z,99.90
2023-04-28T22:20:23.596Z,99.90
2023-04-28T22:22:51.232Z,99.90
2023-04-28T22:25:18.322Z,99.90
2023-04-28T22:27:45.260Z,99.90
2023-04-28T22:30:12.867Z,99.90
2023-04-28T22:32:44.615Z,99.90
2023-04-28T22:35:12.649Z,99.90
2023-04-28T22:37:40.102Z,99.90
2023-04-28T22:40:08.438Z,99.90
2023-04-28T22:42:40.601Z,99.90
2023-04-28T22:45:09.985Z,99.90
2023-04-28T22:47:38.555Z,99.90
2023-04-28T22:50:07.969Z,99.90
2023-04-28T22:52:35.313Z,99.90
2023-04-28T22:55:02.388Z,99.90
2023-04-28T22:57:29.333Z,99.90
2023-04-28T22:59:56.313Z,99.90
2023-04-28T23:02:23.536Z,99.90
2023-04-28T23:04:50.823Z,99.90
2023-04-28T23:07:17.961Z,99.90
2023-04-28T23:09:44.805Z,99.90
2023-04-28T23:12:11.755Z,99.90
2023-04-28T23:14:38.692Z,99.90
2023-04-28T23:17:05.637Z,99.90
2023-04-28T23:19:32.547Z,99.90
2023-04-28T23:21:59.502Z,99.90
2023-04-28T23:24:27.298Z,99.90
2023-04-28T23:26:54.490Z,99.90
2023-04-28T23:29:21.655Z,99.90
2023-04-28T23:31:54.617Z,99.90
2023-04-28T23:34:22.596Z,99.90
2023-04-28T23:36:49.837Z,99.90
2023-04-28T23:39:16.892Z,99.90
2023-04-28T23:41:44.054Z,99.90
2023-04-28T23:44:11.011Z,99.90
2023-04-28T23:46:38.042Z,99.90
2023-04-28T23:49:04.996Z,99.90
2023-04-28T23:51:32.382Z,99.90
2023-04-28T23:53:59.403Z,99.90
2023-04-28T23:56:26.760Z,99.90
2023-04-28T23:58:53.882Z,99.90
